Time;durP1;ratioP1;P1;durP2;ratioP2;P2;SDS_P1;SDS_P2;PMS_P1;PMS_P2;Temp;Humidity;BMP_temperature;BMP_pressure;BME280_temperature;BME280_humidity;BME280_pressure;Samples;Min_cycle;Max_cycle;Signal;HPM_P1;HPM_P2
2024/01/08 00:00:10;;;;;;;;;;;;;;;-140.72;0.00;52364.47;5092946;28;20367;-71
2024/01/08 00:02:36;;;;;;;;;;;;;;;-140.72;0.00;52362.44;5093972;28;19916;-71
2024/01/08 00:05:01;;;;;;;;;;;;;;;-140.72;0.00;52378.69;5086510;28;20017;-70
2024/01/08 00:07:26;;;;;;;;;;;;;;;-140.72;0.00;52384.78;5076262;28;19926;-70
2024/01/08 00:09:51;;;;;;;;;;;;;;;-140.72;0.00;52372.59;5079986;28;19923;-70
2024/01/08 00:12:17;;;;;;;;;;;;;;;-140.72;0.00;52374.63;5086992;28;19916;-71
2024/01/08 00:14:42;;;;;;;;;;;;;;;-140.72;0.00;52376.66;5073246;28;19999;-70
2024/01/08 00:17:07;;;;;;;;;;;;;;;-140.72;0.00;52362.44;5100566;28;20019;-71
2024/01/08 00:19:32;;;;;;;;;;;;;;;-140.72;0.00;52384.78;5103812;28;19920;-71
2024/01/08 00:21:57;;;;;;;;;;;;;;;-140.72;0.00;52368.53;5099692;28;19958;-70
2024/01/08 00:24:23;;;;;;;;;;;;;;;-140.72;0.00;52382.75;5106690;28;19963;-70
2024/01/08 00:26:48;;;;;;;;;;;;;;;-140.72;0.00;52342.16;5094565;28;19960;-70
2024/01/08 00:29:13;;;;;;;;;;;;;;;-140.72;0.00;52368.53;5092721;28;20041;-71
2024/01/08 00:31:38;;;;;;;;;;;;;;;-140.72;0.00;52384.78;5104802;28;20367;-70
2024/01/08 00:34:03;;;;;;;;;;;;;;;-140.72;0.00;52370.56;5091407;28;20021;-70
2024/01/08 00:36:29;;;;;;;;;;;;;;;-140.72;0.00;52346.22;5092404;28;20388;-70
2024/01/08 00:38:54;;;;;;;;;;;;;;;-140.72;0.00;52311.72;5104447;28;19916;-70
2024/01/08 00:41:19;;;;;;;;;;;;;;;-140.72;0.00;52348.25;5099689;28;19924;-70
2024/01/08 00:43:45;;;;;;;;;;;;;;;-140.72;0.00;52332.03;5089443;28;19931;-70
2024/01/08 00:46:10;;;;;;;;;;;;;;;-140.72;0.00;52370.56;5085687;28;19916;-70
2024/01/08 00:48:35;;;;;;;;;;;;;;;-140.72;0.00;52352.31;5091832;28;19928;-70
2024/01/08 00:51:00;;;;;;;;;;;;;;;-140.72;0.00;52435.50;5086830;28;19970;-70
2024/01/08 00:53:25;;;;;;;;;;;;;;;-140.72;0.00;52317.81;5069491;28;19924;-70
2024/01/08 00:55:51;;;;;;;;;;;;;;;-140.72;0.00;52358.41;5092443;28;19959;-70
2024/01/08 00:58:16;;;;;;;;;;;;;;;-140.72;0.00;52401.00;5075206;28;20338;-70
2024/01/08 01:00:41;;;;;;;;;;;;;;;-140.72;0.00;52398.97;5092393;28;20404;-70
2024/01/08 01:03:06;;;;;;;;;;;;;;;-140.72;0.00;52386.81;5074815;28;19923;-70
2024/01/08 01:05:32;;;;;;;;;;;;;;;-140.72;0.00;52398.97;5075418;28;19916;-70
2024/01/08 01:07:57;;;;;;;;;;;;;;;-140.72;0.00;52376.66;5083696;28;19961;-70
2024/01/08 01:10:22;;;;;;;;;;;;;;;-140.72;0.00;52360.44;5082794;28;19920;-70
2024/01/08 01:12:47;;;;;;;;;;;;;;;-140.72;0.00;52366.50;5087664;28;20390;-70
2024/01/08 01:15:13;;;;;;;;;;;;;;;-140.72;0.00;52382.75;5079474;28;19917;-70
2024/01/08 01:17:38;;;;;;;;;;;;;;;-140.72;0.00;52409.13;5090369;28;20016;-70
2024/01/08 01:20:04;;;;;;;;;;;;;;;-140.72;0.00;52394.91;5091022;28;19977;-70
2024/01/08 01:22:29;;;;;;;;;;;;;;;-140.72;0.00;52384.78;5105170;28;20053;-70
2024/01/08 01:24:54;;;;;;;;;;;;;;;-140.72;0.00;52376.66;5091151;28;19920;-70
2024/01/08 01:27:20;;;;;;;;;;;;;;;-140.72;0.00;52342.16;5077716;28;19920;-70
2024/01/08 01:29:45;;;;;;;;;;;;;;;-140.72;0.00;52378.69;5101885;28;19965;-70
2024/01/08 01:32:10;;;;;;;;;;;;;;;-140.72;0.00;52380.72;5090919;28;19919;-70
2024/01/08 01:34:37;;;;;;;;;;;;;;;-140.72;0.00;52429.41;5079500;28;20014;-70
2024/01/08 01:37:02;;;;;;;;;;;;;;;-140.72;0.00;52394.91;5067584;28;19924;-71
2024/01/08 01:39:29;;;;;;;;;;;;;;;-140.72;0.00;52405.06;5092327;28;19945;-70
2024/01/08 01:41:54;;;;;;;;;;;;;;;-140.72;0.00;52360.44;5068391;28;19923;-70
2024/01/08 01:44:19;;;;;;;;;;;;;;;-140.72;0.00;52364.47;5091252;28;19916;-70
2024/01/08 01:46:48;;;;;;;;;;;;;;;-140.72;0.00;52368.53;5075763;28;19924;-70
2024/01/08 01:49:14;;;;;;;;;;;;;;;-140.72;0.00;52382.75;5075302;28;19920;-70
2024/01/08 01:51:41;;;;;;;;;;;;;;;-140.72;0.00;52380.72;5098415;28;20337;-70
2024/01/08 01:54:07;;;;;;;;;;;;;;;-140.72;0.00;52415.22;5087590;28;19920;-70
2024/01/08 01:56:33;;;;;;;;;;;;;;;-140.72;0.00;52394.91;5096945;28;20014;-70
2024/01/08 01:58:58;;;;;;;;;;;;;;;-140.72;0.00;52368.53;5089111;28;19960;-70
2024/01/08 02:01:23;;;;;;;;;;;;;;;-140.72;0.00;52401.00;5094434;28;19912;-70
2024/01/08 02:03:49;;;;;;;;;;;;;;;-140.72;0.00;52360.44;5094326;28;20337;-71
2024/01/08 02:06:17;;;;;;;;;;;;;;;-140.72;0.00;52390.84;5095241;28;19927;-70
2024/01/08 02:08:43;;;;;;;;;;;;;;;-140.72;0.00;52350.28;5084348;28;20249;-70
2024/01/08 02:11:09;;;;;;;;;;;;;;;-140.72;0.00;52362.44;5093189;28;19942;-70
2024/01/08 02:13:34;;;;;;;;;;;;;;;-140.72;0.00;52386.81;5095383;28;19920;-71
2024/01/08 02:15:59;;;;;;;;;;;;;;;-140.72;0.00;52443.63;5084543;28;19932;-70
2024/01/08 02:18:24;;;;;;;;;;;;;;;-140.72;0.00;52386.81;5090862;28;19916;-71
2024/01/08 02:20:49;;;;;;;;;;;;;;;-140.72;0.00;52380.72;5086440;28;19916;-70
2024/01/08 02:23:15;;;;;;;;;;;;;;;-140.72;0.00;52419.28;5080275;28;19921;-70
2024/01/08 02:25:40;;;;;;;;;;;;;;;-140.72;0.00;52370.56;5092384;28;19973;-70
2024/01/08 02:28:05;;;;;;;;;;;;;;;-140.72;0.00;52376.66;5090938;28;19943;-70
2024/01/08 02:30:30;;;;;;;;;;;;;;;-140.72;0.00;52366.50;5080268;28;19965;-70
2024/01/08 02:32:56;;;;;;;;;;;;;;;-140.72;0.00;52327.97;5094756;28;19919;-70
2024/01/08 02:35:21;;;;;;;;;;;;;;;-140.72;0.00;52376.66;5098257;28;20396;-70
2024/01/08 02:37:46;;;;;;;;;;;;;;;-140.72;0.00;52382.75;5091808;28;19916;-70
2024/01/08 02:40:11;;;;;;;;;;;;;;;-140.72;0.00;52390.84;5100862;28;19927;-70
2024/01/08 02:42:40;;;;;;;;;;;;;;;-140.72;0.00;52394.91;5096367;28;20015;-71
2024/01/08 02:45:06;;;;;;;;;;;;;;;-140.72;0.00;52330.00;5088225;28;19967;-70
2024/01/08 02:47:33;;;;;;;;;;;;;;;-140.72;0.00;52354.34;5079768;28;19958;-70
2024/01/08 02:49:58;;;;;;;;;;;;;;;-140.72;0.00;52405.06;5078411;28;19920;-70
2024/01/08 02:52:23;;;;;;;;;;;;;;;-140.72;0.00;52392.88;5092803;28;19939;-70
2024/01/08 02:54:48;;;;;;;;;;;;;;;-140.72;0.00;52386.81;5097020;28;19976;-70
2024/01/08 02:57:16;;;;;;;;;;;;;;;-140.72;0.00;52374.63;5091693;28;19920;-70
2024/01/08 02:59:41;;;;;;;;;;;;;;;-140.72;0.00;52362.44;5094926;28;19921;-70
2024/01/08 03:02:06;;;;;;;;;;;;;;;-140.72;0.00;52405.06;5094655;28;19920;-70
2024/01/08 03:04:31;;;;;;;;;;;;;;;-140.72;0.00;52370.56;5098447;28;19931;-70
2024/01/08 03:06:57;;;;;;;;;;;;;;;-140.72;0.00;52366.50;5095739;28;20346;-70
2024/01/08 03:09:22;;;;;;;;;;;;;;;-140.72;0.00;52405.06;5077905;28;19927;-70
2024/01/08 03:11:47;;;;;;;;;;;;;;;-140.72;0.00;52382.75;5088293;28;20050;-70
2024/01/08 03:14:12;;;;;;;;;;;;;;;-140.72;0.00;52390.84;5097771;28;19926;-70
2024/01/08 03:16:38;;;;;;;;;;;;;;;-140.72;0.00;52358.41;5107417;28;19931;-70
2024/01/08 03:19:03;;;;;;;;;;;;;;;-140.72;0.00;52378.69;5083072;28;19915;-70
2024/01/08 03:21:28;;;;;;;;;;;;;;;-140.72;0.00;52362.44;5101333;28;20697;-70
2024/01/08 03:23:53;;;;;;;;;;;;;;;-140.72;0.00;52382.75;5103893;28;19920;-71
2024/01/08 03:26:18;;;;;;;;;;;;;;;-140.72;0.00;52409.13;5082026;28;19950;-70
2024/01/08 03:28:44;;;;;;;;;;;;;;;-140.72;0.00;52366.50;5097255;28;19916;-70
2024/01/08 03:31:09;;;;;;;;;;;;;;;-140.72;0.00;52356.38;5096905;28;19920;-71
2024/01/08 03:33:35;;;;;;;;;;;;;;;-140.72;0.00;52380.72;5113126;28;20065;-70
2024/01/08 03:36:00;;;;;;;;;;;;;;;-140.72;0.00;52390.84;5098880;28;19947;-70
2024/01/08 03:38:25;;;;;;;;;;;;;;;-140.72;0.00;52362.44;5095854;28;19956;-70
2024/01/08 03:40:50;;;;;;;;;;;;;;;-140.72;0.00;52382.75;5087344;28;19948;-70
2024/01/08 03:43:15;;;;;;;;;;;;;;;-140.72;0.00;52396.94;5075498;28;19971;-70
2024/01/08 03:45:41;;;;;;;;;;;;;;;-140.72;0.00;52394.91;5093490;28;19982;-70
2024/01/08 03:48:06;;;;;;;;;;;;;;;-140.72;0.00;52366.50;5077776;28;19924;-70
2024/01/08 03:50:33;;;;;;;;;;;;;;;-140.72;0.00;52358.41;5091489;28;19950;-70
2024/01/08 03:52:58;;;;;;;;;;;;;;;-140.72;0.00;52380.72;5092567;28;19920;-70
2024/01/08 03:55:23;;;;;;;;;;;;;;;-140.72;0.00;52358.41;5092862;28;20177;-70
2024/01/08 03:57:48;;;;;;;;;;;;;;;-140.72;0.00;52374.63;5093894;28;20263;-70
2024/01/08 04:00:14;;;;;;;;;;;;;;;-140.72;0.00;52362.44;5100656;28;19973;-70
2024/01/08 04:02:40;;;;;;;;;;;;;;;-140.72;0.00;52352.31;5094309;28;19939;-70
2024/01/08 04:05:07;;;;;;;;;;;;;;;-140.72;0.00;52358.41;5083530;28;19916;-70
2024/01/08 04:07:32;;;;;;;;;;;;;;;-140.72;0.00;52378.69;5082855;28;19939;-70
2024/01/08 04:09:57;;;;;;;;;;;;;;;-140.72;0.00;52372.59;5092870;28;20393;-70
2024/01/08 04:12:23;;;;;;;;;;;;;;;-140.72;0.00;52350.28;5079237;28;19920;-70
2024/01/08 04:14:48;;;;;;;;;;;;;;;-140.72;0.00;52390.84;5089199;28;19923;-70
2024/01/08 04:17:13;;;;;;;;;;;;;;;-140.72;0.00;52370.56;5092899;28;19920;-70
2024/01/08 04:19:38;;;;;;;;;;;;;;;-140.72;0.00;52423.31;5071754;28;19928;-70
2024/01/08 04:22:03;;;;;;;;;;;;;;;-140.72;0.00;52360.44;5082816;28;19927;-70
2024/01/08 04:24:29;;;;;;;;;;;;;;;-140.72;0.00;52421.28;5086536;28;19925;-70
2024/01/08 04:26:54;;;;;;;;;;;;;;;-140.72;0.00;52384.78;5087815;28;20406;-70
2024/01/08 04:29:19;;;;;;;;;;;;;;;-140.72;0.00;52374.63;5083186;28;20370;-70
2024/01/08 04:31:44;;;;;;;;;;;;;;;-140.72;0.00;52334.03;5099168;28;19920;-70
2024/01/08 04:34:10;;;;;;;;;;;;;;;-140.72;0.00;52386.81;5099973;28;20460;-70
2024/01/08 04:36:44;;;;;;;;;;;;;;;-140.72;0.00;52386.81;5092280;28;19920;-70
2024/01/08 04:39:09;;;;;;;;;;;;;;;-140.72;0.00;52386.81;5092134;28;19920;-70
2024/01/08 04:41:35;;;;;;;;;;;;;;;-140.72;0.00;52374.63;5092971;28;19930;-70
2024/01/08 04:44:00;;;;;;;;;;;;;;;-140.72;0.00;52403.03;5091110;28;19921;-70
2024/01/08 04:46:25;;;;;;;;;;;;;;;-140.72;0.00;52392.88;5092268;28;19927;-70
2024/01/08 04:48:50;;;;;;;;;;;;;;;-140.72;0.00;52384.78;5096629;28;19920;-70
2024/01/08 04:51:22;;;;;;;;;;;;;;;-140.72;0.00;52392.88;5099103;28;20436;-70
2024/01/08 04:53:48;;;;;;;;;;;;;;;-140.72;0.00;52366.50;5100226;28;19924;-73
2024/01/08 04:56:23;;;;;;;;;;;;;;;-140.72;0.00;52461.88;5088723;28;19920;-70
2024/01/08 04:58:49;;;;;;;;;;;;;;;-140.72;0.00;52536.97;5093715;28;20011;-70
2024/01/08 05:01:14;;;;;;;;;;;;;;;-140.72;0.00;52512.59;5103629;28;20370;-70
2024/01/08 05:03:41;;;;;;;;;;;;;;;-140.72;0.00;52504.50;5100686;28;19923;-70
2024/01/08 05:06:06;;;;;;;;;;;;;;;-140.72;0.00;52526.81;5094216;28;19921;-70
2024/01/08 05:08:31;;;;;;;;;;;;;;;-140.72;0.00;52524.78;5080975;28;20418;-71
2024/01/08 05:10:56;;;;;;;;;;;;;;;-140.72;0.00;52536.97;5093444;28;19920;-71
2024/01/08 05:13:21;;;;;;;;;;;;;;;-140.72;0.00;52474.06;5088519;28;20015;-70
2024/01/08 05:15:47;;;;;;;;;;;;;;;-140.72;0.00;52480.16;5101738;28;20008;-71
2024/01/08 05:18:12;;;;;;;;;;;;;;;-140.72;0.00;52536.97;5088462;28;20002;-70
2024/01/08 05:20:37;;;;;;;;;;;;;;;-140.72;0.00;52504.50;5093157;28;19962;-70
2024/01/08 05:23:03;;;;;;;;;;;;;;;-140.72;0.00;52486.22;5101632;28;19965;-69
2024/01/08 05:25:29;;;;;;;;;;;;;;;-140.72;0.00;52490.28;5080529;28;19928;-70
2024/01/08 05:27:54;;;;;;;;;;;;;;;-140.72;0.00;52539.00;5079720;28;19938;-70
2024/01/08 05:30:19;;;;;;;;;;;;;;;-140.72;0.00;52536.97;5097682;28;20471;-70
2024/01/08 05:32:44;;;;;;;;;;;;;;;-140.72;0.00;52512.59;5089877;28;19916;-70
2024/01/08 05:35:09;;;;;;;;;;;;;;;-140.72;0.00;52502.47;5093335;28;19916;-70
2024/01/08 05:37:35;;;;;;;;;;;;;;;-140.72;0.00;52484.19;5078763;28;19966;-70
2024/01/08 05:40:00;;;;;;;;;;;;;;;-140.72;0.00;52490.28;5087416;28;19927;-70
2024/01/08 05:42:25;;;;;;;;;;;;;;;-140.72;0.00;52528.84;5086022;28;20289;-70
2024/01/08 05:44:50;;;;;;;;;;;;;;;-140.72;0.00;52524.78;5092709;28;19967;-70
2024/01/08 05:47:16;;;;;;;;;;;;;;;-140.72;0.00;52490.28;5093733;28;20007;-70
2024/01/08 05:49:42;;;;;;;;;;;;;;;-140.72;0.00;52524.78;5095702;28;19971;-69
2024/01/08 05:52:07;;;;;;;;;;;;;;;-140.72;0.00;52500.44;5092623;28;19916;-72
2024/01/08 05:54:33;;;;;;;;;;;;;;;-140.72;0.00;52484.19;5073929;28;19920;-70
2024/01/08 05:56:58;;;;;;;;;;;;;;;-140.72;0.00;52506.53;5080300;28;19966;-72
2024/01/08 05:59:23;;;;;;;;;;;;;;;-140.72;0.00;52541.03;5071882;28;19970;-70
2024/01/08 06:01:48;;;;;;;;;;;;;;;-140.72;0.00;52536.97;5083717;28;19942;-70
2024/01/08 06:04:14;;;;;;;;;;;;;;;-140.72;0.00;52496.38;5092160;28;19965;-69
2024/01/08 06:06:39;;;;;;;;;;;;;;;-140.72;0.00;52490.28;5099674;28;19939;-71
2024/01/08 06:09:05;;;;;;;;;;;;;;;-140.72;0.00;52545.06;5078903;28;20127;-71
2024/01/08 06:11:30;;;;;;;;;;;;;;;-140.72;0.00;52480.16;5092646;28;19916;-71
2024/01/08 06:13:55;;;;;;;;;;;;;;;-140.72;0.00;52518.69;5079813;28;19917;-71
2024/01/08 06:16:21;;;;;;;;;;;;;;;-140.72;0.00;52522.75;5078353;28;19965;-70
2024/01/08 06:18:46;;;;;;;;;;;;;;;-140.72;0.00;52508.56;5093311;28;20440;-71
2024/01/08 06:21:11;;;;;;;;;;;;;;;-140.72;0.00;52478.13;5071668;28;20007;-70
2024/01/08 06:23:36;;;;;;;;;;;;;;;-140.72;0.00;52500.44;5091631;28;19960;-70
2024/01/08 06:26:02;;;;;;;;;;;;;;;-140.72;0.00;52508.56;5086992;28;19932;-70
2024/01/08 06:28:28;;;;;;;;;;;;;;;-140.72;0.00;52512.59;5072785;28;19920;-71
2024/01/08 06:30:54;;;;;;;;;;;;;;;-140.72;0.00;52496.38;5078177;28;19916;-73
2024/01/08 06:33:19;;;;;;;;;;;;;;;-140.72;0.00;52459.84;5081762;28;20000;-70
2024/01/08 06:35:44;;;;;;;;;;;;;;;-140.72;0.00;52455.78;5080973;28;19922;-70
2024/01/08 06:38:09;;;;;;;;;;;;;;;-140.72;0.00;52498.41;5093996;28;19980;-71
2024/01/08 06:40:35;;;;;;;;;;;;;;;-140.72;0.00;52480.16;5076323;28;19973;-70
2024/01/08 06:43:00;;;;;;;;;;;;;;;-140.72;0.00;52498.41;5095432;28;20408;-70
2024/01/08 06:45:25;;;;;;;;;;;;;;;-140.72;0.00;52508.56;5089134;28;19921;-75
2024/01/08 06:47:50;;;;;;;;;;;;;;;-140.72;0.00;52504.50;5096581;28;19920;-70
2024/01/08 06:50:15;;;;;;;;;;;;;;;-140.72;0.00;52472.03;5091128;28;20586;-70
2024/01/08 06:52:41;;;;;;;;;;;;;;;-140.72;0.00;52465.94;5078723;28;20324;-72
2024/01/08 06:55:06;;;;;;;;;;;;;;;-140.72;0.00;52498.41;5075200;28;20030;-73
2024/01/08 06:57:31;;;;;;;;;;;;;;;-140.72;0.00;52496.38;5111278;28;19920;-72
2024/01/08 06:59:57;;;;;;;;;;;;;;;-140.72;0.00;52508.56;5086324;28;20400;-76
2024/01/08 07:02:24;;;;;;;;;;;;;;;-140.72;0.00;52445.66;5071341;28;20436;-73
2024/01/08 07:04:49;;;;;;;;;;;;;;;-140.72;0.00;52482.16;5068918;28;20617;-73
2024/01/08 07:07:14;;;;;;;;;;;;;;;-140.72;0.00;52484.19;5083596;28;19920;-71
2024/01/08 07:09:39;;;;;;;;;;;;;;;-140.72;0.00;52506.53;5083262;28;20057;-73
2024/01/08 07:12:05;;;;;;;;;;;;;;;-140.72;0.00;52494.34;5092799;28;20006;-73
2024/01/08 07:14:31;;;;;;;;;;;;;;;-140.72;0.00;52480.16;5094005;28;20054;-71
2024/01/08 07:16:56;;;;;;;;;;;;;;;-140.72;0.00;52465.94;5099722;28;19916;-73
2024/01/08 07:19:21;;;;;;;;;;;;;;;-140.72;0.00;52520.72;5085680;28;20011;-81
2024/01/08 07:21:47;;;;;;;;;;;;;;;-140.72;0.00;52506.53;5084116;28;19931;-74
2024/01/08 07:24:12;;;;;;;;;;;;;;;-140.72;0.00;52500.44;5081402;28;20010;-71
2024/01/08 07:26:37;;;;;;;;;;;;;;;-140.72;0.00;52514.63;5067153;28;20279;-71
2024/01/08 07:29:03;;;;;;;;;;;;;;;-140.72;0.00;52472.03;5056936;28;20355;-70
2024/01/08 07:31:31;;;;;;;;;;;;;;;-140.72;0.00;52447.69;5085786;28;19920;-71
2024/01/08 07:33:58;;;;;;;;;;;;;;;-140.72;0.00;52498.41;5078824;28;19922;-71
2024/01/08 07:36:23;;;;;;;;;;;;;;;-140.72;0.00;52502.47;5097886;28;19919;-70
2024/01/08 07:38:48;;;;;;;;;;;;;;;-140.72;0.00;52474.06;5095299;28;19994;-71
2024/01/08 07:41:14;;;;;;;;;;;;;;;-140.72;0.00;52467.97;5094598;28;19951;-71
2024/01/08 07:43:39;;;;;;;;;;;;;;;-140.72;0.00;52500.44;5094968;28;20010;-71
2024/01/08 07:46:04;;;;;;;;;;;;;;;-140.72;0.00;52484.19;5084583;28;19916;-71
2024/01/08 07:48:29;;;;;;;;;;;;;;;-140.72;0.00;52467.97;5099376;28;20377;-71
2024/01/08 07:50:55;;;;;;;;;;;;;;;-140.72;0.00;52512.59;5089925;28;20003;-71
2024/01/08 07:53:20;;;;;;;;;;;;;;;-140.72;0.00;52447.69;5093504;28;19916;-71
2024/01/08 07:55:45;;;;;;;;;;;;;;;-140.72;0.00;52484.19;5098437;28;19920;-70
2024/01/08 07:58:13;;;;;;;;;;;;;;;-140.72;0.00;52480.16;5099469;28;20015;-71
2024/01/08 08:00:38;;;;;;;;;;;;;;;-140.72;0.00;52457.81;5101548;28;19920;-71
2024/01/08 08:03:04;;;;;;;;;;;;;;;-140.72;0.00;52480.16;5090825;28;19993;-71
2024/01/08 08:05:29;;;;;;;;;;;;;;;-140.72;0.00;52478.13;5090460;28;19931;-71
2024/01/08 08:07:54;;;;;;;;;;;;;;;-140.72;0.00;52474.06;5076643;28;20305;-71
2024/01/08 08:10:19;;;;;;;;;;;;;;;-140.72;0.00;52496.38;5084687;28;19916;-71
2024/01/08 08:12:44;;;;;;;;;;;;;;;-140.72;0.00;52500.44;5095835;28;20354;-71
2024/01/08 08:15:10;;;;;;;;;;;;;;;-140.72;0.00;52478.13;5091691;28;20289;-71
2024/01/08 08:17:37;;;;;;;;;;;;;;;-140.72;0.00;52484.19;5081642;28;19917;-71
2024/01/08 08:20:05;;;;;;;;;;;;;;;-140.72;0.00;52476.09;5091622;28;20027;-71
2024/01/08 08:22:30;;;;;;;;;;;;;;;-140.72;0.00;52449.72;5089686;28;19923;-71
2024/01/08 08:24:56;;;;;;;;;;;;;;;-140.72;0.00;52512.59;5095716;28;20002;-71
2024/01/08 08:27:21;;;;;;;;;;;;;;;-140.72;0.00;52467.97;5085395;28;20311;-71
2024/01/08 08:29:47;;;;;;;;;;;;;;;-140.72;0.00;52500.44;5090374;28;19916;-71
2024/01/08 08:32:13;;;;;;;;;;;;;;;-140.72;0.00;52514.63;5079571;28;19961;-71
2024/01/08 08:34:39;;;;;;;;;;;;;;;-140.72;0.00;52518.69;5093458;28;20021;-71
2024/01/08 08:37:05;;;;;;;;;;;;;;;-140.72;0.00;52480.16;5083241;28;20387;-71
2024/01/08 08:39:30;;;;;;;;;;;;;;;-140.72;0.00;52463.91;5093521;28;19924;-71
2024/01/08 08:41:56;;;;;;;;;;;;;;;-140.72;0.00;52490.28;5109087;28;19920;-71
2024/01/08 08:44:21;;;;;;;;;;;;;;;-140.72;0.00;52470.00;5093168;28;19927;-71
2024/01/08 08:46:46;;;;;;;;;;;;;;;-140.72;0.00;52480.16;5097542;28;20014;-71
2024/01/08 08:49:13;;;;;;;;;;;;;;;-140.72;0.00;52472.03;5093989;28;20029;-71
2024/01/08 08:51:38;;;;;;;;;;;;;;;-140.72;0.00;52496.38;5097813;28;20375;-71
2024/01/08 08:54:04;;;;;;;;;;;;;;;-140.72;0.00;52439.56;5074063;28;20021;-71
2024/01/08 08:56:33;;;;;;;;;;;;;;;-140.72;0.00;52451.72;5070642;28;20289;-70
2024/01/08 08:58:58;;;;;;;;;;;;;;;-140.72;0.00;52498.41;5092252;28;19920;-70
2024/01/08 09:01:23;;;;;;;;;;;;;;;-140.72;0.00;52451.72;5081917;28;19963;-71
2024/01/08 09:03:48;;;;;;;;;;;;;;;-140.72;0.00;52472.03;5094341;28;19963;-71
2024/01/08 09:06:14;;;;;;;;;;;;;;;-140.72;0.00;52484.19;5087745;28;19924;-70
2024/01/08 09:08:39;;;;;;;;;;;;;;;-140.72;0.00;52476.09;5084826;28;19927;-71
2024/01/08 09:11:04;;;;;;;;;;;;;;;-140.72;0.00;52476.09;5091019;28;19917;-70
2024/01/08 09:13:29;;;;;;;;;;;;;;;-140.72;0.00;52467.97;5071923;28;19920;-71
2024/01/08 09:15:54;;;;;;;;;;;;;;;-140.72;0.00;52476.09;5095171;28;19928;-71
2024/01/08 09:18:20;;;;;;;;;;;;;;;-140.72;0.00;52498.41;5086722;28;19916;-71
2024/01/08 09:20:45;;;;;;;;;;;;;;;-140.72;0.00;52496.38;5092113;28;20396;-73
2024/01/08 09:23:11;;;;;;;;;;;;;;;-140.72;0.00;52405.06;5095969;28;19966;-73
2024/01/08 09:25:36;;;;;;;;;;;;;;;-140.72;0.00;52453.75;5094410;28;19924;-79
2024/01/08 09:28:01;;;;;;;;;;;;;;;-140.72;0.00;52472.03;5097144;28;19999;-73
2024/01/08 09:30:26;;;;;;;;;;;;;;;-140.72;0.00;52455.78;5077543;28;19916;-74
2024/01/08 09:32:51;;;;;;;;;;;;;;;-140.72;0.00;52476.09;5089604;28;19920;-72
2024/01/08 09:35:17;;;;;;;;;;;;;;;-140.72;0.00;52492.31;5084348;28;19926;-70
2024/01/08 09:37:42;;;;;;;;;;;;;;;-140.72;0.00;52476.09;5083053;28;19963;-73
2024/01/08 09:40:07;;;;;;;;;;;;;;;-140.72;0.00;52472.03;5092340;28;19916;-82
2024/01/08 09:42:33;;;;;;;;;;;;;;;-140.72;0.00;52439.56;5091613;28;19921;-71
2024/01/08 09:45:00;;;;;;;;;;;;;;;-140.72;0.00;52486.22;5099459;28;19924;-71
2024/01/08 09:47:25;;;;;;;;;;;;;;;-140.72;0.00;52463.91;5091908;28;19928;-71
2024/01/08 09:49:51;;;;;;;;;;;;;;;-140.72;0.00;52470.00;5100004;28;19916;-71
2024/01/08 09:52:16;;;;;;;;;;;;;;;-140.72;0.00;52411.16;5090373;28;20345;-71
2024/01/08 09:54:45;;;;;;;;;;;;;;;-140.72;0.00;52459.84;5092376;28;19928;-71
2024/01/08 09:57:10;;;;;;;;;;;;;;;-140.72;0.00;52461.88;5087704;28;19920;-71
2024/01/08 09:59:35;;;;;;;;;;;;;;;-140.72;0.00;52474.06;5085152;28;19935;-76
2024/01/08 10:02:01;;;;;;;;;;;;;;;-140.72;0.00;52435.50;5089398;28;19928;-71
2024/01/08 10:04:27;;;;;;;;;;;;;;;-140.72;0.00;52502.47;5096613;28;19930;-70
2024/01/08 10:07:05;;;;;;;;;;;;;;;-140.72;0.00;52431.44;5090277;28;19931;-71
2024/01/08 10:09:30;;;;;;;;;;;;;;;-140.72;0.00;52423.31;5100979;28;19927;-71
2024/01/08 10:11:57;;;;;;;;;;;;;;;-140.72;0.00;52443.63;5084750;28;20000;-73
2024/01/08 10:14:23;;;;;;;;;;;;;;;-140.72;0.00;52470.00;5085308;28;20724;-71
2024/01/08 10:16:49;;;;;;;;;;;;;;;-140.72;0.00;52425.34;5094510;28;19928;-70
2024/01/08 10:19:15;;;;;;;;;;;;;;;-140.72;0.00;52427.38;5084664;28;19920;-71
2024/01/08 10:21:40;;;;;;;;;;;;;;;-140.72;0.00;52455.78;5093697;28;19916;-71
2024/01/08 10:24:09;;;;;;;;;;;;;;;-140.72;0.00;52447.69;5112145;28;19927;-72
2024/01/08 10:26:35;;;;;;;;;;;;;;;-140.72;0.00;52443.63;5111492;28;20083;-71
2024/01/08 10:29:02;;;;;;;;;;;;;;;-140.72;0.00;52459.84;5101292;28;19951;-71
2024/01/08 10:31:27;;;;;;;;;;;;;;;-140.72;0.00;52461.88;5098931;28;20035;-71
2024/01/08 10:33:57;;;;;;;;;;;;;;;-140.72;0.00;52453.75;5088442;28;20014;-71
2024/01/08 10:36:22;;;;;;;;;;;;;;;-140.72;0.00;52435.50;5092856;28;19923;-71
2024/01/08 10:38:49;;;;;;;;;;;;;;;-140.72;0.00;52433.47;5093562;28;19919;-71
2024/01/08 10:41:14;;;;;;;;;;;;;;;-140.72;0.00;52490.28;5094365;28;19986;-71
2024/01/08 10:43:40;;;;;;;;;;;;;;;-140.72;0.00;52480.16;5087617;28;20009;-71
2024/01/08 10:46:07;;;;;;;;;;;;;;;-140.72;0.00;52431.44;5092046;28;19920;-72
2024/01/08 10:48:43;;;;;;;;;;;;;;;-140.72;0.00;52437.53;5089022;28;19950;-71
2024/01/08 10:51:09;;;;;;;;;;;;;;;-140.72;0.00;52447.69;5095539;28;19920;-71
2024/01/08 10:53:47;;;;;;;;;;;;;;;-140.72;0.00;52431.44;5096354;28;19931;-71
2024/01/08 10:56:14;;;;;;;;;;;;;;;-140.72;0.00;52459.84;5110236;28;19927;-71
2024/01/08 10:58:43;;;;;;;;;;;;;;;-140.72;0.00;52443.63;5096063;28;19923;-71
2024/01/08 11:01:08;;;;;;;;;;;;;;;-140.72;0.00;52459.84;5093796;28;19927;-71
2024/01/08 11:03:35;;;;;;;;;;;;;;;-140.72;0.00;52470.00;5086500;28;19916;-72
2024/01/08 11:06:03;;;;;;;;;;;;;;;-140.72;0.00;52472.03;5071656;28;19924;-72
2024/01/08 11:08:31;;;;;;;;;;;;;;;-140.72;0.00;52476.09;5067955;28;19956;-71
2024/01/08 11:11:04;;;;;;;;;;;;;;;-140.72;0.00;52459.84;5097687;28;19924;-71
2024/01/08 11:13:30;;;;;;;;;;;;;;;-140.72;0.00;52457.81;5081245;28;19994;-71
2024/01/08 11:15:57;;;;;;;;;;;;;;;-140.72;0.00;52463.91;5092076;28;20294;-71
2024/01/08 11:18:24;;;;;;;;;;;;;;;-140.72;0.00;52455.78;5084487;28;19920;-71
2024/01/08 11:20:50;;;;;;;;;;;;;;;-140.72;0.00;52476.09;5084815;28;19924;-71
2024/01/08 11:23:33;;;;;;;;;;;;;;;-140.72;0.00;52472.03;5074113;28;20349;-71
2024/01/08 11:25:58;;;;;;;;;;;;;;;-140.72;0.00;52467.97;5086332;28;19928;-71
2024/01/08 11:28:23;;;;;;;;;;;;;;;-140.72;0.00;52451.72;5084952;28;19938;-73
2024/01/08 11:30:57;;;;;;;;;;;;;;;-140.72;0.00;52470.00;5088176;28;19946;-71
2024/01/08 11:33:36;;;;;;;;;;;;;;;-140.72;0.00;52455.78;5099445;28;19924;-71
2024/01/08 11:36:04;;;;;;;;;;;;;;;-140.72;0.00;52467.97;5086760;28;19923;-71
2024/01/08 11:38:31;;;;;;;;;;;;;;;-140.72;0.00;52435.50;5087383;28;20407;-72
2024/01/08 11:40:56;;;;;;;;;;;;;;;-140.72;0.00;52443.63;5103582;28;20212;-72
2024/01/08 11:43:26;;;;;;;;;;;;;;;-140.72;0.00;52472.03;5094665;28;19922;-71
2024/01/08 11:45:51;;;;;;;;;;;;;;;-140.72;0.00;52439.56;5088270;28;19920;-72
2024/01/08 11:48:16;;;;;;;;;;;;;;;-140.72;0.00;52403.03;5090945;28;19923;-70
2024/01/08 11:50:42;;;;;;;;;;;;;;;-140.72;0.00;52451.72;5078226;28;20019;-71
2024/01/08 11:53:12;;;;;;;;;;;;;;;-140.72;0.00;52459.84;5082122;28;19916;-71
2024/01/08 11:55:39;;;;;;;;;;;;;;;-140.72;0.00;52439.56;5066894;28;19921;-71
2024/01/08 11:58:04;;;;;;;;;;;;;;;-140.72;0.00;52435.50;5076231;28;20263;-71
2024/01/08 12:00:30;;;;;;;;;;;;;;;-140.72;0.00;52439.56;5088708;28;19978;-71
2024/01/08 12:03:05;;;;;;;;;;;;;;;-140.72;0.00;52435.50;5084972;28;20368;-71
2024/01/08 12:05:31;;;;;;;;;;;;;;;-140.72;0.00;52449.72;5089248;28;20233;-71
2024/01/08 12:07:56;;;;;;;;;;;;;;;-140.72;0.00;52449.72;5098127;28;19953;-71
2024/01/08 12:10:21;;;;;;;;;;;;;;;-140.72;0.00;52398.97;5092053;28;20411;-71
2024/01/08 12:12:47;;;;;;;;;;;;;;;-140.72;0.00;52433.47;5081247;28;20009;-71
2024/01/08 12:15:12;;;;;;;;;;;;;;;-140.72;0.00;52478.13;5081297;28;19927;-71
2024/01/08 12:17:38;;;;;;;;;;;;;;;-140.72;0.00;52439.56;5088835;28;19961;-70
2024/01/08 12:20:03;;;;;;;;;;;;;;;-140.72;0.00;52425.34;5090302;28;20251;-71
2024/01/08 12:22:29;;;;;;;;;;;;;;;-140.72;0.00;52413.19;5091165;28;20377;-71
2024/01/08 12:24:58;;;;;;;;;;;;;;;-140.72;0.00;52384.78;5087181;28;19926;-71
2024/01/08 12:27:25;;;;;;;;;;;;;;;-140.72;0.00;52427.38;5085709;28;19917;-72